sensor_id;sensor_type;location;lat;lon;timestamp;temperature;humidity
60701;DHT22;46541;49.894;10.886;2022-12-10T00:01:29;1.50;99.90
60701;DHT22;46541;49.894;10.886;2022-12-10T00:03:56;1.50;99.90
60701;DHT22;46541;49.894;10.886;2022-12-10T00:06:27;1.50;99.90
60701;DHT22;46541;49.894;10.886;2022-12-10T00:08:55;1.50;99.90
60701;DHT22;46541;49.894;10.886;2022-12-10T00:11:23;1.50;99.90
60701;DHT22;46541;49.894;10.886;2022-12-10T00:13:50;1.40;99.90
60701;DHT22;46541;49.894;10.886;2022-12-10T00:16:19;1.40;99.90
60701;DHT22;46541;49.894;10.886;2022-12-10T00:18:47;1.40;99.90
60701;DHT22;46541;49.894;10.886;2022-12-10T00:21:17;1.40;99.90
60701;DHT22;46541;49.894;10.886;2022-12-10T00:23:44;1.40;99.90
60701;DHT22;46541;49.894;10.886;2022-12-10T00:26:23;1.40;99.90
60701;DHT22;46541;49.894;10.886;2022-12-10T00:28:51;1.40;99.90
60701;DHT22;46541;49.894;10.886;2022-12-10T00:31:21;1.30;99.90
60701;DHT22;46541;49.894;10.886;2022-12-10T00:33:48;1.30;99.90
60701;DHT22;46541;49.894;10.886;2022-12-10T00:36:45;1.40;99.90
60701;DHT22;46541;49.894;10.886;2022-12-10T00:39:18;1.40;99.90
60701;DHT22;46541;49.894;10.886;2022-12-10T00:41:46;1.50;99.90
60701;DHT22;46541;49.894;10.886;2022-12-10T00:44:13;1.50;99.90
60701;DHT22;46541;49.894;10.886;2022-12-10T00:46:40;1.50;99.90
60701;DHT22;46541;49.894;10.886;2022-12-10T00:49:07;1.40;99.90
60701;DHT22;46541;49.894;10.886;2022-12-10T00:51:34;1.40;99.90
60701;DHT22;46541;49.894;10.886;2022-12-10T00:54:01;1.40;99.90
60701;DHT22;46541;49.894;10.886;2022-12-10T00:56:30;1.30;99.90
60701;DHT22;46541;49.894;10.886;2022-12-10T00:58:59;1.30;99.90
60701;DHT22;46541;49.894;10.886;2022-12-10T01:01:41;1.30;99.90
60701;DHT22;46541;49.894;10.886;2022-12-10T01:04:14;1.30;99.90
60701;DHT22;46541;49.894;10.886;2022-12-10T01:06:43;1.30;99.90
60701;DHT22;46541;49.894;10.886;2022-12-10T01:09:13;1.30;99.90
60701;DHT22;46541;49.894;10.886;2022-12-10T01:11:41;1.30;99.90
60701;DHT22;46541;49.894;10.886;2022-12-10T01:14:12;1.30;99.90
60701;DHT22;46541;49.894;10.886;2022-12-10T01:16:39;1.30;99.90
60701;DHT22;46541;49.894;10.886;2022-12-10T01:19:06;1.30;99.90
60701;DHT22;46541;49.894;10.886;2022-12-10T01:21:33;1.30;99.90
60701;DHT22;46541;49.894;10.886;2022-12-10T01:23:59;1.30;99.90
60701;DHT22;46541;49.894;10.886;2022-12-10T01:26:29;1.40;99.90
60701;DHT22;46541;49.894;10.886;2022-12-10T01:28:57;1.40;99.90
60701;DHT22;46541;49.894;10.886;2022-12-10T01:31:31;1.40;99.90
60701;DHT22;46541;49.894;10.886;2022-12-10T01:33:59;1.40;99.90
60701;DHT22;46541;49.894;10.886;2022-12-10T01:36:36;1.40;99.90
60701;DHT22;46541;49.894;10.886;2022-12-10T01:39:05;1.40;99.90
60701;DHT22;46541;49.894;10.886;2022-12-10T01:41:42;1.40;99.90
60701;DHT22;46541;49.894;10.886;2022-12-10T01:46:44;1.50;99.90
60701;DHT22;46541;49.894;10.886;2022-12-10T01:49:13;1.50;99.90
60701;DHT22;46541;49.894;10.886;2022-12-10T01:51:42;1.50;99.90
60701;DHT22;46541;49.894;10.886;2022-12-10T01:54:43;1.60;99.90
60701;DHT22;46541;49.894;10.886;2022-12-10T01:57:14;1.50;99.90
60701;DHT22;46541;49.894;10.886;2022-12-10T01:59:43;1.50;99.90
60701;DHT22;46541;49.894;10.886;2022-12-10T02:02:33;1.40;99.90
60701;DHT22;46541;49.894;10.886;2022-12-10T02:05:28;1.40;99.90
60701;DHT22;46541;49.894;10.886;2022-12-10T02:08:05;1.40;99.90
60701;DHT22;46541;49.894;10.886;2022-12-10T02:13:36;1.40;99.90
60701;DHT22;46541;49.894;10.886;2022-12-10T02:16:14;1.50;99.90
60701;DHT22;46541;49.894;10.886;2022-12-10T02:21:41;1.60;99.90
60701;DHT22;46541;49.894;10.886;2022-12-10T02:24:12;1.60;99.90
60701;DHT22;46541;49.894;10.886;2022-12-10T02:32:02;1.70;99.90
60701;DHT22;46541;49.894;10.886;2022-12-10T02:34:37;1.70;99.90
60701;DHT22;46541;49.894;10.886;2022-12-10T02:37:11;1.70;99.90
60701;DHT22;46541;49.894;10.886;2022-12-10T02:39:44;1.80;99.90
60701;DHT22;46541;49.894;10.886;2022-12-10T02:42:13;1.80;99.90
60701;DHT22;46541;49.894;10.886;2022-12-10T02:44:42;1.80;99.90
60701;DHT22;46541;49.894;10.886;2022-12-10T02:47:10;1.80;99.90
60701;DHT22;46541;49.894;10.886;2022-12-10T02:49:40;1.70;99.90
60701;DHT22;46541;49.894;10.886;2022-12-10T02:52:12;1.70;99.90
60701;DHT22;46541;49.894;10.886;2022-12-10T02:54:47;1.70;99.90
60701;DHT22;46541;49.894;10.886;2022-12-10T03:08:18;1.80;99.90
60701;DHT22;46541;49.894;10.886;2022-12-10T03:13:40;1.80;99.90
60701;DHT22;46541;49.894;10.886;2022-12-10T03:16:10;1.80;99.90
60701;DHT22;46541;49.894;10.886;2022-12-10T03:18:38;1.90;99.90
60701;DHT22;46541;49.894;10.886;2022-12-10T03:21:06;1.90;99.90
60701;DHT22;46541;49.894;10.886;2022-12-10T03:23:35;1.90;99.90
60701;DHT22;46541;49.894;10.886;2022-12-10T03:26:03;1.80;99.90
60701;DHT22;46541;49.894;10.886;2022-12-10T03:28:35;1.70;99.90
60701;DHT22;46541;49.894;10.886;2022-12-10T03:31:04;1.70;99.90
60701;DHT22;46541;49.894;10.886;2022-12-10T03:33:32;1.60;99.90
60701;DHT22;46541;49.894;10.886;2022-12-10T03:36:00;1.60;99.90
60701;DHT22;46541;49.894;10.886;2022-12-10T03:38:27;1.60;99.90
60701;DHT22;46541;49.894;10.886;2022-12-10T03:40:54;1.60;99.90
60701;DHT22;46541;49.894;10.886;2022-12-10T03:43:21;1.60;99.90
60701;DHT22;46541;49.894;10.886;2022-12-10T03:45:48;1.50;99.90
60701;DHT22;46541;49.894;10.886;2022-12-10T03:48:15;1.50;99.90
60701;DHT22;46541;49.894;10.886;2022-12-10T03:50:42;1.60;99.90
60701;DHT22;46541;49.894;10.886;2022-12-10T03:53:08;1.60;99.90
60701;DHT22;46541;49.894;10.886;2022-12-10T03:55:35;1.60;99.90
60701;DHT22;46541;49.894;10.886;2022-12-10T03:58:02;1.50;99.90
60701;DHT22;46541;49.894;10.886;2022-12-10T04:00:29;1.50;99.90
60701;DHT22;46541;49.894;10.886;2022-12-10T04:02:55;1.50;99.90
60701;DHT22;46541;49.894;10.886;2022-12-10T04:05:22;1.50;99.90
60701;DHT22;46541;49.894;10.886;2022-12-10T04:07:49;1.40;99.90
60701;DHT22;46541;49.894;10.886;2022-12-10T04:10:16;1.50;99.90
60701;DHT22;46541;49.894;10.886;2022-12-10T04:12:42;1.40;99.90
60701;DHT22;46541;49.894;10.886;2022-12-10T04:15:09;1.40;99.90
60701;DHT22;46541;49.894;10.886;2022-12-10T04:17:54;1.40;99.90
60701;DHT22;46541;49.894;10.886;2022-12-10T04:20:21;1.50;99.90
60701;DHT22;46541;49.894;10.886;2022-12-10T04:23:07;1.50;99.90
60701;DHT22;46541;49.894;10.886;2022-12-10T04:25:53;1.50;99.90
60701;DHT22;46541;49.894;10.886;2022-12-10T04:28:38;1.50;99.90
60701;DHT22;46541;49.894;10.886;2022-12-10T04:31:05;1.60;99.90
60701;DHT22;46541;49.894;10.886;2022-12-10T04:33:32;1.60;99.90
60701;DHT22;46541;49.894;10.886;2022-12-10T04:35:58;1.70;99.90
60701;DHT22;46541;49.894;10.886;2022-12-10T04:38:25;1.70;99.90
60701;DHT22;46541;49.894;10.886;2022-12-10T04:40:52;1.70;99.90
60701;DHT22;46541;49.894;10.886;2022-12-10T04:43:18;1.70;99.90
60701;DHT22;46541;49.894;10.886;2022-12-10T04:45:45;1.70;99.90
60701;DHT22;46541;49.894;10.886;2022-12-10T04:48:12;1.80;99.90
60701;DHT22;46541;49.894;10.886;2022-12-10T04:50:40;1.70;99.90
60701;DHT22;46541;49.894;10.886;2022-12-10T04:53:06;1.70;99.90
60701;DHT22;46541;49.894;10.886;2022-12-10T04:55:33;1.80;99.90
60701;DHT22;46541;49.894;10.886;2022-12-10T04:58:00;1.80;99.90
60701;DHT22;46541;49.894;10.886;2022-12-10T05:00:26;1.80;99.90
60701;DHT22;46541;49.894;10.886;2022-12-10T05:02:53;1.70;99.90
60701;DHT22;46541;49.894;10.886;2022-12-10T05:05:20;1.70;99.90
60701;DHT22;46541;49.894;10.886;2022-12-10T05:07:47;1.70;99.90
60701;DHT22;46541;49.894;10.886;2022-12-10T05:10:13;1.70;99.90
60701;DHT22;46541;49.894;10.886;2022-12-10T05:12:40;1.70;99.90
60701;DHT22;46541;49.894;10.886;2022-12-10T05:15:07;1.70;99.90
60701;DHT22;46541;49.894;10.886;2022-12-10T05:17:34;1.60;99.90
60701;DHT22;46541;49.894;10.886;2022-12-10T05:20:02;1.70;99.90
60701;DHT22;46541;49.894;10.886;2022-12-10T05:22:28;1.70;99.90
60701;DHT22;46541;49.894;10.886;2022-12-10T05:25:13;1.70;99.90
60701;DHT22;46541;49.894;10.886;2022-12-10T05:27:40;1.80;99.90
60701;DHT22;46541;49.894;10.886;2022-12-10T05:30:08;1.80;99.90
60701;DHT22;46541;49.894;10.886;2022-12-10T05:32:36;1.80;99.90
60701;DHT22;46541;49.894;10.886;2022-12-10T05:35:04;1.90;99.90
60701;DHT22;46541;49.894;10.886;2022-12-10T05:37:31;1.90;99.90
60701;DHT22;46541;49.894;10.886;2022-12-10T05:39:57;1.90;99.90
60701;DHT22;46541;49.894;10.886;2022-12-10T05:42:24;1.90;99.90
60701;DHT22;46541;49.894;10.886;2022-12-10T05:44:51;1.90;99.90
60701;DHT22;46541;49.894;10.886;2022-12-10T05:47:17;1.90;99.90
60701;DHT22;46541;49.894;10.886;2022-12-10T05:49:44;2.00;99.90
60701;DHT22;46541;49.894;10.886;2022-12-10T05:52:17;1.90;99.90
60701;DHT22;46541;49.894;10.886;2022-12-10T05:54:44;1.90;99.90
60701;DHT22;46541;49.894;10.886;2022-12-10T05:57:11;1.90;99.90
60701;DHT22;46541;49.894;10.886;2022-12-10T05:59:37;1.90;99.90
60701;DHT22;46541;49.894;10.886;2022-12-10T06:02:04;1.80;99.90
60701;DHT22;46541;49.894;10.886;2022-12-10T06:04:31;1.80;99.90
60701;DHT22;46541;49.894;10.886;2022-12-10T06:06:58;1.80;99.90
60701;DHT22;46541;49.894;10.886;2022-12-10T06:09:24;1.80;99.90
60701;DHT22;46541;49.894;10.886;2022-12-10T06:11:51;1.80;99.90
60701;DHT22;46541;49.894;10.886;2022-12-10T06:14:18;1.70;99.90
60701;DHT22;46541;49.894;10.886;2022-12-10T06:16:44;1.70;99.90
60701;DHT22;46541;49.894;10.886;2022-12-10T06:19:11;1.70;99.90
60701;DHT22;46541;49.894;10.886;2022-12-10T06:21:38;1.70;99.90
60701;DHT22;46541;49.894;10.886;2022-12-10T06:24:05;1.70;99.90
60701;DHT22;46541;49.894;10.886;2022-12-10T06:26:32;1.70;99.90
60701;DHT22;46541;49.894;10.886;2022-12-10T06:28:59;1.70;99.90
60701;DHT22;46541;49.894;10.886;2022-12-10T06:31:26;1.60;99.90
60701;DHT22;46541;49.894;10.886;2022-12-10T06:33:53;1.60;99.90
60701;DHT22;46541;49.894;10.886;2022-12-10T06:36:21;1.60;99.90
60701;DHT22;46541;49.894;10.886;2022-12-10T06:38:48;1.60;99.90
60701;DHT22;46541;49.894;10.886;2022-12-10T06:41:17;1.60;99.90
60701;DHT22;46541;49.894;10.886;2022-12-10T06:43:44;1.60;99.90
60701;DHT22;46541;49.894;10.886;2022-12-10T06:46:13;1.70;99.90
60701;DHT22;46541;49.894;10.886;2022-12-10T06:48:41;1.70;99.90
60701;DHT22;46541;49.894;10.886;2022-12-10T06:51:08;1.70;99.90
60701;DHT22;46541;49.894;10.886;2022-12-10T06:53:37;1.80;99.90
60701;DHT22;46541;49.894;10.886;2022-12-10T06:56:13;1.80;99.90
60701;DHT22;46541;49.894;10.886;2022-12-10T06:58:41;1.80;99.90
60701;DHT22;46541;49.894;10.886;2022-12-10T07:01:11;1.80;99.90
60701;DHT22;46541;49.894;10.886;2022-12-10T07:03:42;1.80;99.90
60701;DHT22;46541;49.894;10.886;2022-12-10T07:06:10;1.90;99.90
60701;DHT22;46541;49.894;10.886;2022-12-10T07:08:38;1.90;99.90
60701;DHT22;46541;49.894;10.886;2022-12-10T07:11:06;1.90;99.90
60701;DHT22;46541;49.894;10.886;2022-12-10T07:13:34;1.90;99.90
60701;DHT22;46541;49.894;10.886;2022-12-10T07:16:01;1.90;99.90
60701;DHT22;46541;49.894;10.886;2022-12-10T07:18:28;2.00;99.90
60701;DHT22;46541;49.894;10.886;2022-12-10T07:20:55;2.00;99.90
60701;DHT22;46541;49.894;10.886;2022-12-10T07:23:21;2.00;99.90
60701;DHT22;46541;49.894;10.886;2022-12-10T07:25:48;2.10;99.90
60701;DHT22;46541;49.894;10.886;2022-12-10T07:28:15;2.00;99.90
60701;DHT22;46541;49.894;10.886;2022-12-10T07:30:42;2.00;99.90
60701;DHT22;46541;49.894;10.886;2022-12-10T07:33:11;2.10;99.90
60701;DHT22;46541;49.894;10.886;2022-12-10T07:35:38;2.10;99.90
60701;DHT22;46541;49.894;10.886;2022-12-10T07:38:14;2.10;99.90
60701;DHT22;46541;49.894;10.886;2022-12-10T07:40:40;2.20;99.90
60701;DHT22;46541;49.894;10.886;2022-12-10T07:43:07;2.20;99.90
60701;DHT22;46541;49.894;10.886;2022-12-10T07:45:34;2.20;99.90
60701;DHT22;46541;49.894;10.886;2022-12-10T07:48:00;2.20;99.90
60701;DHT22;46541;49.894;10.886;2022-12-10T07:50:27;2.30;99.90
60701;DHT22;46541;49.894;10.886;2022-12-10T07:52:54;2.40;99.90
60701;DHT22;46541;49.894;10.886;2022-12-10T07:55:20;2.40;99.90
60701;DHT22;46541;49.894;10.886;2022-12-10T07:57:47;2.40;99.90
60701;DHT22;46541;49.894;10.886;2022-12-10T08:00:14;2.40;99.90
60701;DHT22;46541;49.894;10.886;2022-12-10T08:02:41;2.30;99.90
60701;DHT22;46541;49.894;10.886;2022-12-10T08:05:08;2.40;99.90
60701;DHT22;46541;49.894;10.886;2022-12-10T08:07:35;2.50;99.90
60701;DHT22;46541;49.894;10.886;2022-12-10T08:10:03;2.50;99.90
60701;DHT22;46541;49.894;10.886;2022-12-10T08:12:29;2.50;99.90
60701;DHT22;46541;49.894;10.886;2022-12-10T08:14:56;2.50;99.90
60701;DHT22;46541;49.894;10.886;2022-12-10T08:17:23;2.50;99.90
60701;DHT22;46541;49.894;10.886;2022-12-10T08:19:50;2.50;99.90
60701;DHT22;46541;49.894;10.886;2022-12-10T08:22:17;2.60;99.90
60701;DHT22;46541;49.894;10.886;2022-12-10T08:24:44;2.60;99.90
60701;DHT22;46541;49.894;10.886;2022-12-10T08:27:10;2.50;99.90
60701;DHT22;46541;49.894;10.886;2022-12-10T08:29:38;2.60;99.90
60701;DHT22;46541;49.894;10.886;2022-12-10T08:32:05;2.60;99.90
60701;DHT22;46541;49.894;10.886;2022-12-10T08:34:32;2.60;99.90
60701;DHT22;46541;49.894;10.886;2022-12-10T08:36:59;2.60;99.90
60701;DHT22;46541;49.894;10.886;2022-12-10T08:39:25;2.70;99.90
60701;DHT22;46541;49.894;10.886;2022-12-10T08:41:52;2.60;99.90
60701;DHT22;46541;49.894;10.886;2022-12-10T08:44:19;2.70;99.90
60701;DHT22;46541;49.894;10.886;2022-12-10T08:46:46;2.70;99.90
60701;DHT22;46541;49.894;10.886;2022-12-10T08:49:12;2.70;99.90
60701;DHT22;46541;49.894;10.886;2022-12-10T08:51:39;2.70;99.90
60701;DHT22;46541;49.894;10.886;2022-12-10T08:54:06;2.70;99.90
60701;DHT22;46541;49.894;10.886;2022-12-10T08:56:33;2.70;99.90
60701;DHT22;46541;49.894;10.886;2022-12-10T08:59:00;2.80;99.90
60701;DHT22;46541;49.894;10.886;2022-12-10T09:01:27;2.90;99.90
60701;DHT22;46541;49.894;10.886;2022-12-10T09:03:54;3.00;99.90
60701;DHT22;46541;49.894;10.886;2022-12-10T09:06:22;3.00;99.90
60701;DHT22;46541;49.894;10.886;2022-12-10T09:08:51;3.00;99.90
60701;DHT22;46541;49.894;10.886;2022-12-10T09:11:21;2.90;99.90
60701;DHT22;46541;49.894;10.886;2022-12-10T09:13:48;2.90;99.90
60701;DHT22;46541;49.894;10.886;2022-12-10T09:16:15;3.00;99.90
60701;DHT22;46541;49.894;10.886;2022-12-10T09:18:46;3.00;99.90
60701;DHT22;46541;49.894;10.886;2022-12-10T09:21:15;3.10;99.90
60701;DHT22;46541;49.894;10.886;2022-12-10T09:23:43;3.20;99.90
60701;DHT22;46541;49.894;10.886;2022-12-10T09:26:12;3.30;99.90
60701;DHT22;46541;49.894;10.886;2022-12-10T09:28:40;3.30;99.90
60701;DHT22;46541;49.894;10.886;2022-12-10T09:31:07;3.30;99.90
60701;DHT22;46541;49.894;10.886;2022-12-10T09:33:50;3.40;99.90
60701;DHT22;46541;49.894;10.886;2022-12-10T09:36:17;3.40;99.90
60701;DHT22;46541;49.894;10.886;2022-12-10T09:38:45;3.50;99.90
60701;DHT22;46541;49.894;10.886;2022-12-10T09:46:44;3.50;99.90
60701;DHT22;46541;49.894;10.886;2022-12-10T09:52:14;3.50;99.90
60701;DHT22;46541;49.894;10.886;2022-12-10T09:55:03;3.60;99.90
60701;DHT22;46541;49.894;10.886;2022-12-10T09:57:36;3.60;99.90
60701;DHT22;46541;49.894;10.886;2022-12-10T10:02:38;3.70;99.90
60701;DHT22;46541;49.894;10.886;2022-12-10T10:07:34;3.70;99.90
60701;DHT22;46541;49.894;10.886;2022-12-10T10:10:09;3.70;99.90
60701;DHT22;46541;49.894;10.886;2022-12-10T10:12:42;3.60;99.90
60701;DHT22;46541;49.894;10.886;2022-12-10T10:15:15;3.70;99.90
60701;DHT22;46541;49.894;10.886;2022-12-10T10:17:42;3.40;99.90
60701;DHT22;46541;49.894;10.886;2022-12-10T10:20:13;3.40;99.90
60701;DHT22;46541;49.894;10.886;2022-12-10T10:22:40;3.40;99.90
60701;DHT22;46541;49.894;10.886;2022-12-10T10:25:15;3.30;99.90
60701;DHT22;46541;49.894;10.886;2022-12-10T10:27:43;3.30;99.90
60701;DHT22;46541;49.894;10.886;2022-12-10T10:30:13;3.40;99.90
60701;DHT22;46541;49.894;10.886;2022-12-10T10:37:47;3.30;99.90
60701;DHT22;46541;49.894;10.886;2022-12-10T10:42:57;3.40;99.90
60701;DHT22;46541;49.894;10.886;2022-12-10T10:50:44;3.50;99.90
60701;DHT22;46541;49.894;10.886;2022-12-10T10:56:13;3.60;99.90
60701;DHT22;46541;49.894;10.886;2022-12-10T10:58:56;3.70;99.90
60701;DHT22;46541;49.894;10.886;2022-12-10T11:01:25;3.70;99.90
60701;DHT22;46541;49.894;10.886;2022-12-10T11:03:58;3.80;99.90
60701;DHT22;46541;49.894;10.886;2022-12-10T11:06:26;3.80;99.90
60701;DHT22;46541;49.894;10.886;2022-12-10T11:08:57;3.90;99.90
60701;DHT22;46541;49.894;10.886;2022-12-10T11:11:36;4.00;99.90
60701;DHT22;46541;49.894;10.886;2022-12-10T11:16:40;4.20;99.90
60701;DHT22;46541;49.894;10.886;2022-12-10T11:19:19;4.20;99.90
60701;DHT22;46541;49.894;10.886;2022-12-10T11:21:47;4.20;99.90
60701;DHT22;46541;49.894;10.886;2022-12-10T11:24:17;4.20;99.90
60701;DHT22;46541;49.894;10.886;2022-12-10T11:27:04;4.20;99.90
60701;DHT22;46541;49.894;10.886;2022-12-10T11:30:04;4.20;99.90
60701;DHT22;46541;49.894;10.886;2022-12-10T11:38:50;4.40;99.90
60701;DHT22;46541;49.894;10.886;2022-12-10T11:41:41;4.50;99.90
60701;DHT22;46541;49.894;10.886;2022-12-10T11:44:25;4.60;99.90
60701;DHT22;46541;49.894;10.886;2022-12-10T11:52:46;4.80;99.90
60701;DHT22;46541;49.894;10.886;2022-12-10T11:55:32;4.90;99.90
60701;DHT22;46541;49.894;10.886;2022-12-10T11:58:26;4.90;99.90
60701;DHT22;46541;49.894;10.886;2022-12-10T12:01:29;5.00;99.90
60701;DHT22;46541;49.894;10.886;2022-12-10T12:15:21;5.00;99.90
60701;DHT22;46541;49.894;10.886;2022-12-10T12:17:59;5.00;99.90
60701;DHT22;46541;49.894;10.886;2022-12-10T12:20:49;4.90;99.90
60701;DHT22;46541;49.894;10.886;2022-12-10T12:23:28;4.90;99.90
60701;DHT22;46541;49.894;10.886;2022-12-10T12:26:00;4.90;99.90
60701;DHT22;46541;49.894;10.886;2022-12-10T12:28:43;4.90;99.90
60701;DHT22;46541;49.894;10.886;2022-12-10T12:31:46;4.80;99.90
60701;DHT22;46541;49.894;10.886;2022-12-10T12:37:11;4.60;99.90
60701;DHT22;46541;49.894;10.886;2022-12-10T12:40:13;4.60;99.90
60701;DHT22;46541;49.894;10.886;2022-12-10T12:45:15;4.60;99.90
60701;DHT22;46541;49.894;10.886;2022-12-10T12:48:02;4.60;99.90
60701;DHT22;46541;49.894;10.886;2022-12-10T12:50:47;4.70;99.90
60701;DHT22;46541;49.894;10.886;2022-12-10T12:53:16;4.70;99.90
60701;DHT22;46541;49.894;10.886;2022-12-10T12:58:34;4.70;99.90
60701;DHT22;46541;49.894;10.886;2022-12-10T13:03:49;4.60;99.90
60701;DHT22;46541;49.894;10.886;2022-12-10T13:11:45;4.50;99.90
60701;DHT22;46541;49.894;10.886;2022-12-10T13:17:31;4.40;99.90
60701;DHT22;46541;49.894;10.886;2022-12-10T13:22:59;4.40;99.90
60701;DHT22;46541;49.894;10.886;2022-12-10T13:36:12;4.40;99.90
60701;DHT22;46541;49.894;10.886;2022-12-10T13:38:41;4.40;99.90
60701;DHT22;46541;49.894;10.886;2022-12-10T13:41:20;4.40;99.90
60701;DHT22;46541;49.894;10.886;2022-12-10T13:47:05;4.40;99.90
60701;DHT22;46541;49.894;10.886;2022-12-10T13:49:54;4.40;99.90
60701;DHT22;46541;49.894;10.886;2022-12-10T13:52:35;4.40;99.90
60701;DHT22;46541;49.894;10.886;2022-12-10T13:58:09;4.40;99.90
60701;DHT22;46541;49.894;10.886;2022-12-10T14:00:49;4.40;99.90
60701;DHT22;46541;49.894;10.886;2022-12-10T14:03:44;4.40;99.90
60701;DHT22;46541;49.894;10.886;2022-12-10T14:06:18;4.40;99.90
60701;DHT22;46541;49.894;10.886;2022-12-10T14:11:24;4.40;99.90
60701;DHT22;46541;49.894;10.886;2022-12-10T14:14:01;4.30;99.90
60701;DHT22;46541;49.894;10.886;2022-12-10T14:16:30;4.30;99.90
60701;DHT22;46541;49.894;10.886;2022-12-10T14:19:04;4.30;99.90
60701;DHT22;46541;49.894;10.886;2022-12-10T14:21:36;4.20;99.90
60701;DHT22;46541;49.894;10.886;2022-12-10T14:24:04;4.20;99.90
60701;DHT22;46541;49.894;10.886;2022-12-10T14:26:33;4.20;99.90
60701;DHT22;46541;49.894;10.886;2022-12-10T14:31:46;4.20;99.90
60701;DHT22;46541;49.894;10.886;2022-12-10T14:34:17;4.20;99.90
60701;DHT22;46541;49.894;10.886;2022-12-10T14:36:50;4.10;99.90
60701;DHT22;46541;49.894;10.886;2022-12-10T14:39:19;4.10;99.90
60701;DHT22;46541;49.894;10.886;2022-12-10T14:41:48;4.00;99.90
60701;DHT22;46541;49.894;10.886;2022-12-10T14:44:17;3.90;99.90
60701;DHT22;46541;49.894;10.886;2022-12-10T14:46:47;4.00;99.90
60701;DHT22;46541;49.894;10.886;2022-12-10T14:49:20;3.90;99.90
60701;DHT22;46541;49.894;10.886;2022-12-10T14:51:48;3.90;99.90
60701;DHT22;46541;49.894;10.886;2022-12-10T14:56:54;3.90;99.90
60701;DHT22;46541;49.894;10.886;2022-12-10T15:02:24;3.90;99.90
60701;DHT22;46541;49.894;10.886;2022-12-10T15:04:52;3.90;99.90
60701;DHT22;46541;49.894;10.886;2022-12-10T15:07:22;3.80;99.90
60701;DHT22;46541;49.894;10.886;2022-12-10T15:09:52;3.80;99.90
60701;DHT22;46541;49.894;10.886;2022-12-10T15:12:44;3.80;99.90
60701;DHT22;46541;49.894;10.886;2022-12-10T15:15:36;3.80;99.90
60701;DHT22;46541;49.894;10.886;2022-12-10T15:18:09;3.80;99.90
60701;DHT22;46541;49.894;10.886;2022-12-10T15:20:39;3.70;99.90
60701;DHT22;46541;49.894;10.886;2022-12-10T15:23:20;3.70;99.90
60701;DHT22;46541;49.894;10.886;2022-12-10T15:33:43;3.50;99.90
60701;DHT22;46541;49.894;10.886;2022-12-10T15:38:51;3.50;99.90
60701;DHT22;46541;49.894;10.886;2022-12-10T15:44:03;3.50;99.90
60701;DHT22;46541;49.894;10.886;2022-12-10T15:46:30;3.50;99.90
60701;DHT22;46541;49.894;10.886;2022-12-10T15:48:57;3.50;99.90
60701;DHT22;46541;49.894;10.886;2022-12-10T15:51:24;3.50;99.90
60701;DHT22;46541;49.894;10.886;2022-12-10T15:53:52;3.50;99.90
60701;DHT22;46541;49.894;10.886;2022-12-10T15:56:19;3.50;99.90
60701;DHT22;46541;49.894;10.886;2022-12-10T15:58:45;3.40;99.90
60701;DHT22;46541;49.894;10.886;2022-12-10T16:01:13;3.40;99.90
60701;DHT22;46541;49.894;10.886;2022-12-10T16:03:40;3.40;99.90
60701;DHT22;46541;49.894;10.886;2022-12-10T16:06:08;3.40;99.90
60701;DHT22;46541;49.894;10.886;2022-12-10T16:08:34;3.30;99.90
60701;DHT22;46541;49.894;10.886;2022-12-10T16:11:12;3.30;99.90
60701;DHT22;46541;49.894;10.886;2022-12-10T16:13:47;3.10;99.90
60701;DHT22;46541;49.894;10.886;2022-12-10T16:16:15;2.90;99.90
60701;DHT22;46541;49.894;10.886;2022-12-10T16:18:41;2.70;99.90
60701;DHT22;46541;49.894;10.886;2022-12-10T16:21:08;2.80;99.90
60701;DHT22;46541;49.894;10.886;2022-12-10T16:23:36;2.90;99.90
60701;DHT22;46541;49.894;10.886;2022-12-10T16:26:16;2.90;99.90
60701;DHT22;46541;49.894;10.886;2022-12-10T16:28:44;2.90;99.90
60701;DHT22;46541;49.894;10.886;2022-12-10T16:31:14;3.00;99.90
60701;DHT22;46541;49.894;10.886;2022-12-10T16:33:41;3.00;99.90
60701;DHT22;46541;49.894;10.886;2022-12-10T16:36:10;3.00;99.90
60701;DHT22;46541;49.894;10.886;2022-12-10T16:38:38;3.00;99.90
60701;DHT22;46541;49.894;10.886;2022-12-10T16:41:37;3.10;99.90
60701;DHT22;46541;49.894;10.886;2022-12-10T16:44:04;3.10;99.90
60701;DHT22;46541;49.894;10.886;2022-12-10T16:46:31;3.10;99.90
60701;DHT22;46541;49.894;10.886;2022-12-10T16:48:57;3.10;99.90
60701;DHT22;46541;49.894;10.886;2022-12-10T16:51:27;3.10;99.90
60701;DHT22;46541;49.894;10.886;2022-12-10T16:53:57;3.20;99.90
60701;DHT22;46541;49.894;10.886;2022-12-10T16:56:24;3.10;99.90
60701;DHT22;46541;49.894;10.886;2022-12-10T16:58:51;3.10;99.90
60701;DHT22;46541;49.894;10.886;2022-12-10T17:01:21;3.10;99.90
60701;DHT22;46541;49.894;10.886;2022-12-10T17:03:49;3.00;99.90
60701;DHT22;46541;49.894;10.886;2022-12-10T17:06:17;3.00;99.90
60701;DHT22;46541;49.894;10.886;2022-12-10T17:08:44;3.00;99.90
60701;DHT22;46541;49.894;10.886;2022-12-10T17:11:26;2.90;99.90
60701;DHT22;46541;49.894;10.886;2022-12-10T17:14:23;2.90;99.90
60701;DHT22;46541;49.894;10.886;2022-12-10T17:16:53;2.90;99.90
60701;DHT22;46541;49.894;10.886;2022-12-10T17:19:20;3.00;99.90
60701;DHT22;46541;49.894;10.886;2022-12-10T17:21:47;2.90;99.90
60701;DHT22;46541;49.894;10.886;2022-12-10T17:24:14;2.90;99.90
60701;DHT22;46541;49.894;10.886;2022-12-10T17:26:44;2.80;99.90
60701;DHT22;46541;49.894;10.886;2022-12-10T17:29:18;2.80;99.90
60701;DHT22;46541;49.894;10.886;2022-12-10T17:31:45;2.80;99.90
60701;DHT22;46541;49.894;10.886;2022-12-10T17:34:13;2.80;99.90
60701;DHT22;46541;49.894;10.886;2022-12-10T17:36:41;2.80;99.90
60701;DHT22;46541;49.894;10.886;2022-12-10T17:39:15;2.80;99.90
60701;DHT22;46541;49.894;10.886;2022-12-10T17:41:48;2.80;99.90
60701;DHT22;46541;49.894;10.886;2022-12-10T17:44:14;2.80;99.90
60701;DHT22;46541;49.894;10.886;2022-12-10T17:46:41;2.80;99.90
60701;DHT22;46541;49.894;10.886;2022-12-10T17:49:13;2.70;99.90
60701;DHT22;46541;49.894;10.886;2022-12-10T17:51:40;2.80;99.90
60701;DHT22;46541;49.894;10.886;2022-12-10T17:54:09;2.90;99.90
60701;DHT22;46541;49.894;10.886;2022-12-10T17:56:36;2.90;99.90
60701;DHT22;46541;49.894;10.886;2022-12-10T17:59:03;2.90;99.90
60701;DHT22;46541;49.894;10.886;2022-12-10T18:01:30;2.90;99.90
60701;DHT22;46541;49.894;10.886;2022-12-10T18:03:57;2.90;99.90
60701;DHT22;46541;49.894;10.886;2022-12-10T18:06:26;2.80;99.90
60701;DHT22;46541;49.894;10.886;2022-12-10T18:08:57;2.80;99.90
60701;DHT22;46541;49.894;10.886;2022-12-10T18:11:28;2.70;99.90
60701;DHT22;46541;49.894;10.886;2022-12-10T18:13:55;2.70;99.90
60701;DHT22;46541;49.894;10.886;2022-12-10T18:16:29;2.70;99.90
60701;DHT22;46541;49.894;10.886;2022-12-10T18:18:58;2.70;99.90